createdAt,value
2019-03-24T00:02:10.815Z,6.23
2019-03-24T00:04:40.689Z,6.40
2019-03-24T00:07:10.618Z,5.50
2019-03-24T00:09:40.534Z,4.67
2019-03-24T00:12:10.564Z,7.30
2019-03-24T00:14:40.391Z,5.30
2019-03-24T00:17:10.340Z,5.17
2019-03-24T00:19:40.250Z,7.40
2019-03-24T00:22:10.209Z,5.50
2019-03-24T00:24:40.034Z,4.97
2019-03-24T00:27:10.231Z,8.80
2019-03-24T00:29:40.020Z,6.33
2019-03-24T00:32:11.250Z,5.37
2019-03-24T00:34:41.119Z,7.63
2019-03-24T00:37:11.108Z,5.40
2019-03-24T00:39:40.977Z,4.67
2019-03-24T00:42:10.994Z,5.20
2019-03-24T00:44:40.855Z,5.97
2019-03-24T00:47:10.577Z,4.97
2019-03-24T00:49:40.557Z,6.73
2019-03-24T00:52:10.553Z,5.20
2019-03-24T00:54:40.428Z,6.00
2019-03-24T00:57:10.871Z,4.03
2019-03-24T00:59:40.656Z,4.33
2019-03-24T01:02:10.682Z,4.87
2019-03-24T01:04:40.581Z,5.20
2019-03-24T01:07:10.440Z,5.83
2019-03-24T01:09:40.375Z,5.80
2019-03-24T01:12:10.345Z,4.67
2019-03-24T01:14:40.218Z,7.73
2019-03-24T01:17:10.204Z,4.80
2019-03-24T01:19:40.104Z,4.63
2019-03-24T01:22:10.457Z,8.50
2019-03-24T01:24:40.380Z,5.40
2019-03-24T01:27:10.459Z,10.63
2019-03-24T01:29:40.318Z,5.27
2019-03-24T01:32:10.214Z,5.17
2019-03-24T01:34:40.158Z,10.30
2019-03-24T01:37:10.074Z,4.10
2019-03-24T01:39:40.179Z,6.60
2019-03-24T01:42:12.038Z,6.33
2019-03-24T01:44:42.063Z,8.97
2019-03-24T01:47:12.006Z,6.00
2019-03-24T01:49:41.950Z,7.03
2019-03-24T01:52:11.762Z,6.13
2019-03-24T01:54:41.726Z,11.80
2019-03-24T01:57:11.613Z,4.80
2019-03-24T01:59:41.590Z,4.87
2019-03-24T02:02:11.478Z,9.30
2019-03-24T02:04:41.359Z,5.50
2019-03-24T02:07:11.323Z,6.67
2019-03-24T02:09:41.371Z,4.30
2019-03-24T02:12:11.376Z,6.33
2019-03-24T02:14:41.222Z,7.30
2019-03-24T02:17:11.329Z,9.30
2019-03-24T02:19:41.263Z,6.53
2019-03-24T02:22:11.132Z,5.00
2019-03-24T02:24:41.168Z,6.70
2019-03-24T02:27:10.997Z,5.67
2019-03-24T02:29:40.983Z,5.93
2019-03-24T02:32:10.862Z,3.87
2019-03-24T02:34:40.845Z,8.73
2019-03-24T02:37:10.730Z,4.40
2019-03-24T02:39:40.464Z,6.57
2019-03-24T02:42:10.282Z,4.83
2019-03-24T02:44:40.311Z,5.40
2019-03-24T02:47:10.082Z,6.40
2019-03-24T02:49:40.070Z,8.73
2019-03-24T02:52:09.821Z,6.63
2019-03-24T02:54:39.963Z,6.17
2019-03-24T02:57:09.877Z,5.63
2019-03-24T02:59:39.748Z,5.93
2019-03-24T03:02:09.639Z,5.20
2019-03-24T03:04:39.607Z,3.93
2019-03-24T03:07:09.509Z,7.27
2019-03-24T03:09:39.329Z,4.50
2019-03-24T03:12:09.263Z,5.13
2019-03-24T03:14:39.203Z,6.00
2019-03-24T03:17:09.031Z,3.97
2019-03-24T03:19:39.011Z,5.67
2019-03-24T03:22:09.730Z,6.43
2019-03-24T03:24:39.596Z,8.63
2019-03-24T03:27:12.067Z,4.30
2019-03-24T03:29:41.955Z,12.03
2019-03-24T03:32:12.425Z,5.23
2019-03-24T03:34:42.359Z,5.73
2019-03-24T03:37:12.377Z,6.27
2019-03-24T03:39:42.219Z,4.37
2019-03-24T03:42:12.189Z,7.13
2019-03-24T03:44:42.046Z,5.10
2019-03-24T03:47:12.047Z,5.20
2019-03-24T03:49:43.614Z,7.20
2019-03-24T03:52:13.409Z,5.33
2019-03-24T03:54:48.037Z,4.47
2019-03-24T03:57:18.820Z,7.70
2019-03-24T03:59:48.673Z,7.10
2019-03-24T04:02:18.622Z,5.97
2019-03-24T04:04:48.574Z,8.47
2019-03-24T04:07:18.492Z,8.83
2019-03-24T04:09:48.294Z,4.70
2019-03-24T04:12:18.238Z,4.57
2019-03-24T04:14:48.578Z,4.50
2019-03-24T04:17:18.418Z,4.40
2019-03-24T04:19:48.190Z,4.83
2019-03-24T04:22:18.261Z,3.73
2019-03-24T04:24:48.110Z,4.60
2019-03-24T04:27:17.951Z,6.20
2019-03-24T04:29:47.798Z,5.97
2019-03-24T04:32:17.734Z,7.57
2019-03-24T04:34:47.758Z,5.43
2019-03-24T04:37:17.706Z,4.97
2019-03-24T04:39:47.519Z,7.23
2019-03-24T04:42:17.498Z,5.13
2019-03-24T04:44:47.469Z,5.73
2019-03-24T04:47:17.380Z,7.17
2019-03-24T04:49:47.258Z,5.60
2019-03-24T04:52:16.907Z,7.17
2019-03-24T04:54:46.870Z,9.30
2019-03-24T04:57:16.812Z,6.47
2019-03-24T04:59:46.526Z,6.37
2019-03-24T05:02:16.400Z,5.57
2019-03-24T05:04:46.223Z,4.20
2019-03-24T05:07:16.254Z,4.07
2019-03-24T05:09:46.450Z,7.17
2019-03-24T05:12:16.491Z,4.17
2019-03-24T05:14:46.366Z,4.73
2019-03-24T05:17:26.500Z,6.87
2019-03-24T05:19:47.890Z,5.53
2019-03-24T05:22:17.667Z,9.87
2019-03-24T05:24:47.655Z,4.90
2019-03-24T05:27:17.583Z,5.90
2019-03-24T05:29:47.547Z,6.93
2019-03-24T05:32:17.432Z,9.73
2019-03-24T05:34:47.301Z,4.67
2019-03-24T05:37:17.287Z,6.47
2019-03-24T05:39:47.211Z,5.80
2019-03-24T05:42:17.034Z,5.27
2019-03-24T05:44:48.216Z,6.57
2019-03-24T05:47:18.133Z,5.80
2019-03-24T05:49:50.573Z,8.40
2019-03-24T05:52:20.449Z,5.40
2019-03-24T05:54:50.649Z,10.23
2019-03-24T05:57:20.669Z,5.43
2019-03-24T05:59:50.615Z,6.77
2019-03-24T06:02:20.410Z,7.37
2019-03-24T06:04:50.565Z,5.83
2019-03-24T06:07:20.507Z,5.67
2019-03-24T06:09:50.417Z,5.97
2019-03-24T06:12:20.292Z,4.30
2019-03-24T06:14:50.238Z,7.83
2019-03-24T06:17:20.058Z,3.27
2019-03-24T06:19:49.870Z,4.30
2019-03-24T06:22:19.802Z,7.93
2019-03-24T06:24:49.718Z,6.17
2019-03-24T06:27:19.666Z,16.70
2019-03-24T06:29:49.584Z,5.40
2019-03-24T06:32:19.482Z,8.57
2019-03-24T06:34:49.396Z,7.97
2019-03-24T06:37:19.315Z,4.93
2019-03-24T06:39:49.273Z,8.20
2019-03-24T06:42:19.143Z,7.10
2019-03-24T06:44:49.081Z,5.03
2019-03-24T06:47:18.932Z,4.23
2019-03-24T06:49:54.414Z,7.20
2019-03-24T06:52:24.202Z,5.60
2019-03-24T06:54:54.201Z,7.80
2019-03-24T06:57:24.151Z,9.00
2019-03-24T06:59:54.155Z,7.57
2019-03-24T07:02:24.021Z,7.93
2019-03-24T07:04:54.672Z,10.40
2019-03-24T07:07:25.099Z,8.90
2019-03-24T07:09:55.894Z,6.07
2019-03-24T07:12:25.831Z,7.13
2019-03-24T07:14:55.874Z,6.70
2019-03-24T07:17:25.719Z,6.50
2019-03-24T07:19:55.553Z,5.53
2019-03-24T07:22:25.618Z,6.87
2019-03-24T07:24:55.447Z,5.27
2019-03-24T07:27:25.268Z,3.10
2019-03-24T07:29:55.006Z,1.77
2019-03-24T07:32:24.974Z,4.47
2019-03-24T07:34:54.925Z,6.27
2019-03-24T07:37:24.858Z,5.40
2019-03-24T07:39:54.664Z,4.37
2019-03-24T07:42:24.442Z,6.50
2019-03-24T07:44:54.319Z,4.20
2019-03-24T07:47:24.245Z,4.33
2019-03-24T07:49:54.226Z,6.00
2019-03-24T07:52:24.895Z,2.37
2019-03-24T07:54:54.770Z,6.73
2019-03-24T07:57:24.833Z,3.37
2019-03-24T07:59:54.736Z,3.87
2019-03-24T08:02:24.613Z,2.80
2019-03-24T08:04:54.516Z,5.13
2019-03-24T08:07:24.403Z,3.77
2019-03-24T08:09:54.531Z,2.30
2019-03-24T08:12:24.381Z,3.97
2019-03-24T08:14:54.444Z,2.50
2019-03-24T08:17:24.282Z,3.93
2019-03-24T08:19:54.178Z,2.43
2019-03-24T08:22:24.109Z,4.97
2019-03-24T08:24:53.992Z,2.80
2019-03-24T08:27:23.956Z,5.47
2019-03-24T08:29:53.901Z,4.73
2019-03-24T08:32:23.667Z,2.40
2019-03-24T08:34:53.422Z,2.77
2019-03-24T08:37:23.400Z,2.40
2019-03-24T08:39:53.307Z,3.40
2019-03-24T08:42:23.215Z,4.83
2019-03-24T08:44:53.211Z,4.77
2019-03-24T08:47:23.077Z,4.57
2019-03-24T08:49:52.942Z,3.40
2019-03-24T08:52:22.978Z,3.93
2019-03-24T08:54:52.734Z,3.30
2019-03-24T08:57:22.669Z,4.33
2019-03-24T08:59:52.671Z,5.83
2019-03-24T09:02:22.598Z,3.77
2019-03-24T09:04:52.244Z,4.00
2019-03-24T09:07:24.328Z,2.80
2019-03-24T09:09:54.273Z,3.13
2019-03-24T09:12:24.282Z,3.10
2019-03-24T09:14:54.250Z,2.70
2019-03-24T09:17:24.161Z,2.10
2019-03-24T09:19:54.088Z,3.03
2019-03-24T09:22:23.959Z,6.33
2019-03-24T09:24:53.835Z,2.80
2019-03-24T09:27:23.844Z,4.77
2019-03-24T09:29:53.607Z,3.73
2019-03-24T09:32:23.534Z,3.37
2019-03-24T09:34:53.518Z,3.30
2019-03-24T09:37:23.339Z,6.73
2019-03-24T09:39:53.442Z,3.87
2019-03-24T09:42:23.505Z,4.50
2019-03-24T09:44:53.988Z,5.33
2019-03-24T09:47:23.871Z,3.43
2019-03-24T09:49:53.858Z,6.63
2019-03-24T09:52:23.725Z,5.77
2019-03-24T09:54:53.710Z,2.77
2019-03-24T09:57:23.543Z,5.33
2019-03-24T09:59:53.409Z,9.17
2019-03-24T10:02:47.301Z,13.23
2019-03-24T10:05:17.178Z,9.63
2019-03-24T10:07:47.146Z,7.40
2019-03-24T10:10:17.223Z,10.97
2019-03-24T10:12:48.531Z,9.63
2019-03-24T10:15:19.290Z,14.33
2019-03-24T10:17:49.334Z,12.37
2019-03-24T10:20:19.269Z,13.13
2019-03-24T10:22:49.205Z,15.30
2019-03-24T10:25:19.190Z,11.27
2019-03-24T10:27:49.174Z,13.97
2019-03-24T10:30:19.142Z,9.77
2019-03-24T10:32:49.894Z,10.23
2019-03-24T10:35:19.871Z,9.07
2019-03-24T10:37:49.882Z,10.03
2019-03-24T10:40:28.201Z,9.53
2019-03-24T10:42:51.301Z,7.47
2019-03-24T10:45:22.361Z,8.57
2019-03-24T10:47:52.433Z,8.83
2019-03-24T10:50:22.379Z,9.27
2019-03-24T10:52:52.223Z,8.30
2019-03-24T10:55:22.086Z,9.10
2019-03-24T10:57:52.058Z,11.27
2019-03-24T11:00:37.680Z,42.63
2019-03-24T11:03:07.925Z,35.93
2019-03-24T11:05:37.729Z,27.27
2019-03-24T11:08:12.478Z,20.30
2019-03-24T11:10:42.392Z,26.77
2019-03-24T11:13:12.257Z,21.93
2019-03-24T11:15:42.163Z,16.57
2019-03-24T11:18:12.743Z,16.07
2019-03-24T11:20:42.596Z,14.70
2019-03-24T11:23:12.500Z,12.07
2019-03-24T11:25:42.540Z,11.50
2019-03-24T11:28:12.644Z,11.37
2019-03-24T11:30:42.715Z,10.40
2019-03-24T11:33:12.749Z,14.20
2019-03-24T11:35:42.702Z,8.73
2019-03-24T11:38:12.609Z,9.73
2019-03-24T11:40:42.494Z,9.13
2019-03-24T11:43:12.469Z,9.27
2019-03-24T11:45:42.408Z,7.87
2019-03-24T11:48:12.321Z,7.97
2019-03-24T11:50:42.315Z,6.43
2019-03-24T11:53:12.327Z,9.40
2019-03-24T11:55:42.269Z,7.13
2019-03-24T11:58:12.083Z,7.80
2019-03-24T12:00:42.074Z,6.43
2019-03-24T12:03:11.976Z,4.10
2019-03-24T12:05:41.856Z,6.30
2019-03-24T12:08:11.846Z,4.73
2019-03-24T12:10:41.835Z,7.23
2019-03-24T12:13:11.879Z,3.80
2019-03-24T12:15:41.811Z,4.17
2019-03-24T12:18:11.698Z,4.00
2019-03-24T12:20:42.759Z,5.23
2019-03-24T12:23:12.486Z,5.60
2019-03-24T12:25:42.376Z,2.77
2019-03-24T12:28:12.383Z,5.00
2019-03-24T12:30:42.302Z,4.10
2019-03-24T12:33:12.182Z,4.67
2019-03-24T12:35:42.228Z,3.30
2019-03-24T12:38:12.071Z,4.33
2019-03-24T12:40:41.872Z,2.20
2019-03-24T12:43:19.367Z,2.13
2019-03-24T12:45:43.256Z,2.63
2019-03-24T12:48:13.272Z,2.63
2019-03-24T12:50:43.162Z,2.00
2019-03-24T12:53:13.175Z,2.47
2019-03-24T12:55:43.037Z,1.93
2019-03-24T12:58:12.987Z,1.70
2019-03-24T13:00:42.920Z,2.17
2019-03-24T13:03:13.506Z,2.03
2019-03-24T13:05:43.522Z,1.67
2019-03-24T13:08:14.705Z,2.17
2019-03-24T13:10:44.531Z,1.80
2019-03-24T13:13:14.545Z,3.10
2019-03-24T13:15:44.474Z,1.60
2019-03-24T13:18:14.404Z,4.13
2019-03-24T13:20:44.225Z,1.40
2019-03-24T13:23:14.245Z,1.53
2019-03-24T13:25:44.066Z,2.10
2019-03-24T13:28:14.057Z,1.43
2019-03-24T13:30:43.790Z,1.87
2019-03-24T13:33:13.864Z,1.40
2019-03-24T13:35:43.762Z,1.50
2019-03-24T13:38:13.711Z,1.23
2019-03-24T13:40:43.481Z,3.07
2019-03-24T13:43:13.520Z,3.27
2019-03-24T13:45:43.913Z,1.83
2019-03-24T13:48:13.998Z,1.30
2019-03-24T13:50:43.780Z,2.00
2019-03-24T13:53:13.795Z,1.67
2019-03-24T13:55:43.720Z,1.30
2019-03-24T13:58:13.659Z,1.00
2019-03-24T14:00:43.439Z,1.03
2019-03-24T14:03:13.406Z,1.37
2019-03-24T14:05:43.344Z,1.30
2019-03-24T14:08:13.194Z,0.87
2019-03-24T14:10:48.687Z,0.80
2019-03-24T14:13:18.743Z,1.83
2019-03-24T14:15:48.794Z,1.80
2019-03-24T14:18:18.650Z,1.20
2019-03-24T14:20:48.598Z,1.27
2019-03-24T14:23:18.494Z,0.80
2019-03-24T14:25:48.173Z,1.87
2019-03-24T14:28:18.143Z,0.80
2019-03-24T14:30:49.054Z,1.80
2019-03-24T14:33:19.110Z,0.90
2019-03-24T14:35:48.925Z,0.97
2019-03-24T14:38:19.304Z,1.17
2019-03-24T14:40:49.380Z,2.00
2019-03-24T14:43:19.321Z,0.67
2019-03-24T14:45:49.381Z,0.97
2019-03-24T14:48:19.265Z,0.93
2019-03-24T14:50:54.381Z,1.10
2019-03-24T14:53:20.978Z,0.90
2019-03-24T14:55:50.845Z,1.37
2019-03-24T14:58:21.756Z,1.23
2019-03-24T15:00:52.529Z,1.00
2019-03-24T15:03:22.631Z,0.77
2019-03-24T15:05:52.601Z,0.73
2019-03-24T15:08:22.541Z,1.50
2019-03-24T15:10:52.406Z,0.83
2019-03-24T15:13:22.404Z,1.33
2019-03-24T15:15:54.599Z,5.73
2019-03-24T15:18:24.506Z,2.57
2019-03-24T15:21:04.960Z,3.40
2019-03-24T15:23:26.504Z,2.77
2019-03-24T15:25:56.502Z,4.50
2019-03-24T15:28:26.576Z,3.80
2019-03-24T15:30:56.460Z,4.10
2019-03-24T15:33:26.284Z,4.53
2019-03-24T15:36:00.611Z,7.07
2019-03-24T15:38:30.580Z,6.20
2019-03-24T15:41:00.642Z,5.70
2019-03-24T15:43:30.499Z,5.60
2019-03-24T15:46:00.436Z,5.70
2019-03-24T15:48:30.344Z,6.10
2019-03-24T15:51:00.461Z,5.37
2019-03-24T15:53:30.428Z,5.00
2019-03-24T15:56:00.441Z,6.30
2019-03-24T15:58:30.528Z,5.37
2019-03-24T16:01:00.592Z,5.77
2019-03-24T16:03:30.522Z,4.73
2019-03-24T16:06:00.412Z,4.70
2019-03-24T16:08:30.280Z,5.20
2019-03-24T16:11:00.252Z,4.90
2019-03-24T16:13:30.683Z,4.90
2019-03-24T16:16:00.974Z,5.27
2019-03-24T16:18:30.972Z,4.50
2019-03-24T16:21:00.941Z,4.63
2019-03-24T16:23:30.831Z,9.40
2019-03-24T16:26:01.020Z,4.63
2019-03-24T16:28:31.254Z,13.30
2019-03-24T16:31:01.211Z,10.30
2019-03-24T16:33:31.074Z,8.67
2019-03-24T16:36:01.028Z,8.80
2019-03-24T16:38:36.694Z,7.77
2019-03-24T16:41:06.853Z,10.40
2019-03-24T16:43:37.083Z,8.53
2019-03-24T16:46:07.571Z,9.80
2019-03-24T16:48:37.591Z,6.87
2019-03-24T16:51:07.580Z,8.10
2019-03-24T16:53:37.667Z,9.17
2019-03-24T16:56:07.779Z,7.40
2019-03-24T16:58:37.855Z,9.17
2019-03-24T17:01:07.650Z,11.80
2019-03-24T17:03:37.720Z,12.40
2019-03-24T17:06:10.041Z,11.80
2019-03-24T17:08:39.461Z,11.03
2019-03-24T17:11:09.537Z,69.90
2019-03-24T17:13:39.902Z,50.27
2019-03-24T17:16:09.941Z,32.53
2019-03-24T17:18:39.906Z,29.13
2019-03-24T17:21:10.043Z,32.67
2019-03-24T17:23:40.079Z,28.80
2019-03-24T17:26:10.047Z,17.60
2019-03-24T17:28:40.342Z,14.57
2019-03-24T17:31:10.433Z,13.20
2019-03-24T17:33:40.436Z,15.30
2019-03-24T17:36:10.582Z,12.70
2019-03-24T17:38:40.728Z,12.40
2019-03-24T17:41:11.059Z,13.03
2019-03-24T17:43:41.381Z,13.40
2019-03-24T17:46:11.627Z,10.80
2019-03-24T17:48:54.963Z,11.07
2019-03-24T17:51:25.083Z,10.00
2019-03-24T17:53:55.437Z,9.50
2019-03-24T17:56:25.649Z,8.70
2019-03-24T17:58:55.758Z,9.50
2019-03-24T18:01:36.864Z,8.40
2019-03-24T18:04:06.881Z,8.40
2019-03-24T18:06:36.893Z,8.00
2019-03-24T18:09:09.030Z,10.33
2019-03-24T18:11:39.124Z,7.60
2019-03-24T18:14:09.268Z,7.40
2019-03-24T18:16:39.540Z,7.10
2019-03-24T18:19:09.680Z,6.60
2019-03-24T18:21:39.845Z,6.27
2019-03-24T18:24:09.963Z,6.17
2019-03-24T18:26:42.874Z,17.77
2019-03-24T18:29:12.990Z,96.13
2019-03-24T18:31:43.258Z,18.07
2019-03-24T18:34:13.502Z,18.90
2019-03-24T18:36:43.626Z,23.60
2019-03-24T18:39:13.920Z,17.57
2019-03-24T18:41:43.910Z,20.93
2019-03-24T18:44:15.009Z,17.53
2019-03-24T18:46:44.920Z,17.43
2019-03-24T18:49:14.901Z,20.93
2019-03-24T18:51:44.902Z,19.70
2019-03-24T18:54:14.889Z,22.10
2019-03-24T18:56:44.856Z,18.43
2019-03-24T18:59:15.781Z,22.00
2019-03-24T19:01:45.829Z,22.63
2019-03-24T19:04:15.894Z,20.80
2019-03-24T19:06:45.942Z,17.03
2019-03-24T19:09:20.280Z,21.07
2019-03-24T19:11:51.767Z,20.60
2019-03-24T19:14:22.187Z,16.40
2019-03-24T19:16:52.096Z,17.67
2019-03-24T19:19:22.040Z,17.10
2019-03-24T19:21:51.967Z,16.37
2019-03-24T19:24:21.901Z,15.27
2019-03-24T19:26:52.006Z,14.63
2019-03-24T19:29:22.244Z,16.20
2019-03-24T19:31:54.881Z,20.43
2019-03-24T19:34:24.887Z,14.43
2019-03-24T19:36:55.023Z,18.17
2019-03-24T19:39:25.019Z,21.77
2019-03-24T19:41:55.014Z,19.47
2019-03-24T19:44:25.086Z,13.23
2019-03-24T19:46:54.965Z,12.50
2019-03-24T19:49:24.967Z,13.50
2019-03-24T19:51:55.125Z,13.53
2019-03-24T19:54:30.936Z,15.33
2019-03-24T19:57:00.775Z,11.73
2019-03-24T19:59:30.726Z,18.00
2019-03-24T20:02:00.715Z,12.93
2019-03-24T20:04:30.812Z,14.37
2019-03-24T20:07:00.932Z,13.70
2019-03-24T20:09:30.836Z,12.70
2019-03-24T20:12:00.833Z,11.30
2019-03-24T20:14:30.782Z,15.20
2019-03-24T20:17:00.711Z,15.37
2019-03-24T20:19:30.632Z,13.47
2019-03-24T20:22:00.562Z,12.50
2019-03-24T20:24:36.802Z,14.70
2019-03-24T20:27:06.655Z,10.27
2019-03-24T20:29:36.601Z,13.23
2019-03-24T20:32:06.619Z,13.10
2019-03-24T20:34:36.645Z,11.50
2019-03-24T20:37:06.623Z,10.67
2019-03-24T20:39:36.397Z,9.07
2019-03-24T20:42:06.462Z,10.83
2019-03-24T20:44:36.369Z,12.00
2019-03-24T20:47:07.309Z,11.77
2019-03-24T20:49:48.785Z,13.17
2019-03-24T20:52:18.725Z,8.87
2019-03-24T20:54:48.674Z,11.23
2019-03-24T20:57:18.617Z,12.70
2019-03-24T20:59:48.507Z,11.27
2019-03-24T21:02:18.413Z,8.90
2019-03-24T21:04:48.280Z,13.87
2019-03-24T21:07:19.408Z,11.07
2019-03-24T21:09:49.397Z,11.87
2019-03-24T21:12:19.214Z,10.63
2019-03-24T21:14:49.052Z,11.20
2019-03-24T21:17:18.943Z,11.23
2019-03-24T21:19:48.843Z,10.33
2019-03-24T21:22:18.797Z,10.80
2019-03-24T21:24:48.632Z,6.97
2019-03-24T21:27:18.707Z,11.27
2019-03-24T21:29:55.109Z,7.83
2019-03-24T21:32:31.021Z,9.27
2019-03-24T21:35:01.032Z,8.50
2019-03-24T21:37:36.127Z,9.83
2019-03-24T21:40:06.478Z,9.43
2019-03-24T21:42:36.665Z,8.43
2019-03-24T21:45:06.639Z,8.70
2019-03-24T21:47:36.437Z,10.33
2019-03-24T21:50:14.060Z,7.63
2019-03-24T21:52:54.913Z,12.10
2019-03-24T21:55:24.910Z,8.00
2019-03-24T21:58:00.931Z,10.53
2019-03-24T22:00:35.026Z,6.37
2019-03-24T22:03:04.993Z,14.90
2019-03-24T22:05:34.841Z,9.63
2019-03-24T22:08:04.824Z,9.27
2019-03-24T22:10:34.846Z,9.20
2019-03-24T22:13:04.655Z,10.60
2019-03-24T22:15:37.020Z,11.00
2019-03-24T22:18:12.900Z,12.37
2019-03-24T22:20:48.805Z,8.80
2019-03-24T22:23:14.520Z,7.53
2019-03-24T22:25:48.750Z,11.03
2019-03-24T22:28:18.791Z,5.53
2019-03-24T22:30:48.667Z,6.87
2019-03-24T22:33:18.654Z,6.57
2019-03-24T22:35:48.522Z,5.90
2019-03-24T22:38:18.735Z,8.47
2019-03-24T22:40:48.502Z,7.07
2019-03-24T22:43:18.353Z,9.43
2019-03-24T22:45:49.479Z,8.60
2019-03-24T22:48:19.306Z,7.77
2019-03-24T22:50:49.282Z,9.87
2019-03-24T22:53:24.952Z,7.57
2019-03-24T22:55:54.698Z,7.00
2019-03-24T22:58:24.816Z,10.53
2019-03-24T23:00:55.353Z,8.27
2019-03-24T23:03:25.572Z,4.50
2019-03-24T23:05:55.750Z,5.00
2019-03-24T23:08:25.564Z,11.17
2019-03-24T23:10:55.658Z,5.83
2019-03-24T23:13:25.467Z,7.87
2019-03-24T23:15:55.418Z,5.17
2019-03-24T23:18:26.193Z,5.83
2019-03-24T23:21:01.011Z,4.93
2019-03-24T23:23:36.747Z,7.37
2019-03-24T23:26:06.711Z,4.93
2019-03-24T23:28:36.617Z,4.63
2019-03-24T23:31:06.627Z,8.40
2019-03-24T23:33:36.647Z,7.27
2019-03-24T23:36:06.518Z,5.97
2019-03-24T23:38:36.549Z,5.50
2019-03-24T23:41:06.391Z,7.63
2019-03-24T23:43:36.224Z,7.30
2019-03-24T23:46:06.278Z,8.50
2019-03-24T23:48:36.144Z,4.70
2019-03-24T23:51:05.991Z,7.30
2019-03-24T23:53:35.978Z,4.10
2019-03-24T23:56:05.909Z,5.23
2019-03-24T23:58:40.842Z,5.17
